sensor_id;sensor_type;location;lat;lon;timestamp;temperature;humidity
76293;DHT22;67256;51.154;4.164;2023-11-19T00:01:41;14.30;99.90
76293;DHT22;67256;51.154;4.164;2023-11-19T00:04:06;14.30;99.90
76293;DHT22;67256;51.154;4.164;2023-11-19T00:06:33;14.30;99.90
76293;DHT22;67256;51.154;4.164;2023-11-19T00:08:59;14.30;99.90
76293;DHT22;67256;51.154;4.164;2023-11-19T00:11:25;14.30;99.90
76293;DHT22;67256;51.154;4.164;2023-11-19T00:13:51;14.40;99.90
76293;DHT22;67256;51.154;4.164;2023-11-19T00:16:17;14.30;99.90
76293;DHT22;67256;51.154;4.164;2023-11-19T00:18:42;14.20;99.90
76293;DHT22;67256;51.154;4.164;2023-11-19T00:21:08;14.10;99.90
76293;DHT22;67256;51.154;4.164;2023-11-19T00:23:35;14.10;99.90
76293;DHT22;67256;51.154;4.164;2023-11-19T00:26:01;14.10;99.90
76293;DHT22;67256;51.154;4.164;2023-11-19T00:28:27;14.10;99.90
76293;DHT22;67256;51.154;4.164;2023-11-19T00:30:52;14.10;99.90
76293;DHT22;67256;51.154;4.164;2023-11-19T00:33:19;14.20;99.90
76293;DHT22;67256;51.154;4.164;2023-11-19T00:35:45;14.20;99.90
76293;DHT22;67256;51.154;4.164;2023-11-19T00:38:10;14.10;99.90
76293;DHT22;67256;51.154;4.164;2023-11-19T00:40:36;14.10;99.90
76293;DHT22;67256;51.154;4.164;2023-11-19T00:43:02;14.10;99.90
76293;DHT22;67256;51.154;4.164;2023-11-19T00:45:28;14.10;99.90
76293;DHT22;67256;51.154;4.164;2023-11-19T00:47:55;14.10;99.90
76293;DHT22;67256;51.154;4.164;2023-11-19T00:50:21;14.10;99.90
76293;DHT22;67256;51.154;4.164;2023-11-19T00:52:48;14.10;99.90
76293;DHT22;67256;51.154;4.164;2023-11-19T00:55:13;14.10;99.90
76293;DHT22;67256;51.154;4.164;2023-11-19T00:57:39;14.20;99.90
76293;DHT22;67256;51.154;4.164;2023-11-19T01:00:06;14.10;99.90
76293;DHT22;67256;51.154;4.164;2023-11-19T01:02:45;13.90;99.90
76293;DHT22;67256;51.154;4.164;2023-11-19T01:05:11;13.90;99.90
76293;DHT22;67256;51.154;4.164;2023-11-19T01:07:39;13.80;99.90
76293;DHT22;67256;51.154;4.164;2023-11-19T01:10:06;13.80;99.90
76293;DHT22;67256;51.154;4.164;2023-11-19T01:12:33;13.80;99.90
76293;DHT22;67256;51.154;4.164;2023-11-19T01:14:59;13.80;99.90
76293;DHT22;67256;51.154;4.164;2023-11-19T01:17:26;13.90;99.90
76293;DHT22;67256;51.154;4.164;2023-11-19T01:19:52;13.80;99.90
76293;DHT22;67256;51.154;4.164;2023-11-19T01:22:18;13.90;99.90
76293;DHT22;67256;51.154;4.164;2023-11-19T01:24:44;14.00;99.90
76293;DHT22;67256;51.154;4.164;2023-11-19T01:27:10;14.00;99.90
76293;DHT22;67256;51.154;4.164;2023-11-19T01:29:36;13.90;99.90
76293;DHT22;67256;51.154;4.164;2023-11-19T01:32:04;13.90;99.90
76293;DHT22;67256;51.154;4.164;2023-11-19T01:34:29;13.90;99.90
76293;DHT22;67256;51.154;4.164;2023-11-19T01:36:55;13.90;99.90
76293;DHT22;67256;51.154;4.164;2023-11-19T01:39:21;13.80;99.90
76293;DHT22;67256;51.154;4.164;2023-11-19T01:41:47;13.80;99.90
76293;DHT22;67256;51.154;4.164;2023-11-19T01:44:13;13.70;99.90
76293;DHT22;67256;51.154;4.164;2023-11-19T01:46:40;13.70;99.90
76293;DHT22;67256;51.154;4.164;2023-11-19T01:49:07;13.70;99.90
76293;DHT22;67256;51.154;4.164;2023-11-19T01:51:34;13.70;99.90
76293;DHT22;67256;51.154;4.164;2023-11-19T01:54:01;13.60;99.90
76293;DHT22;67256;51.154;4.164;2023-11-19T01:56:27;13.70;99.90
76293;DHT22;67256;51.154;4.164;2023-11-19T01:58:54;13.70;99.90
76293;DHT22;67256;51.154;4.164;2023-11-19T02:01:21;13.80;99.90
76293;DHT22;67256;51.154;4.164;2023-11-19T02:03:47;13.90;99.90
76293;DHT22;67256;51.154;4.164;2023-11-19T02:06:13;13.80;99.90
76293;DHT22;67256;51.154;4.164;2023-11-19T02:08:41;13.80;99.90
76293;DHT22;67256;51.154;4.164;2023-11-19T02:11:07;13.80;99.90
76293;DHT22;67256;51.154;4.164;2023-11-19T02:13:33;13.90;99.90
76293;DHT22;67256;51.154;4.164;2023-11-19T02:16:01;13.90;99.90
76293;DHT22;67256;51.154;4.164;2023-11-19T02:18:28;14.00;99.90
76293;DHT22;67256;51.154;4.164;2023-11-19T02:20:55;14.00;99.90
76293;DHT22;67256;51.154;4.164;2023-11-19T02:23:21;14.10;99.90
76293;DHT22;67256;51.154;4.164;2023-11-19T02:28:17;14.10;99.90
76293;DHT22;67256;51.154;4.164;2023-11-19T02:30:43;14.10;99.90
76293;DHT22;67256;51.154;4.164;2023-11-19T02:33:10;14.10;99.90
76293;DHT22;67256;51.154;4.164;2023-11-19T02:35:36;14.10;99.90
76293;DHT22;67256;51.154;4.164;2023-11-19T02:38:01;14.00;99.90
76293;DHT22;67256;51.154;4.164;2023-11-19T02:40:32;14.00;99.90
76293;DHT22;67256;51.154;4.164;2023-11-19T02:42:58;13.90;99.90
76293;DHT22;67256;51.154;4.164;2023-11-19T02:45:25;13.80;99.90
76293;DHT22;67256;51.154;4.164;2023-11-19T02:47:52;13.80;99.90
76293;DHT22;67256;51.154;4.164;2023-11-19T02:50:19;13.80;99.90
76293;DHT22;67256;51.154;4.164;2023-11-19T02:52:52;13.90;99.90
76293;DHT22;67256;51.154;4.164;2023-11-19T02:55:19;13.90;99.90
76293;DHT22;67256;51.154;4.164;2023-11-19T02:57:45;13.80;99.90
76293;DHT22;67256;51.154;4.164;2023-11-19T03:00:19;13.80;99.90
76293;DHT22;67256;51.154;4.164;2023-11-19T03:02:49;13.80;99.90
76293;DHT22;67256;51.154;4.164;2023-11-19T03:05:24;13.90;99.90
76293;DHT22;67256;51.154;4.164;2023-11-19T03:07:50;13.90;99.90
76293;DHT22;67256;51.154;4.164;2023-11-19T03:10:16;13.90;99.90
76293;DHT22;67256;51.154;4.164;2023-11-19T03:12:43;14.00;99.90
76293;DHT22;67256;51.154;4.164;2023-11-19T03:15:11;14.00;99.90
76293;DHT22;67256;51.154;4.164;2023-11-19T03:17:40;14.00;99.90
76293;DHT22;67256;51.154;4.164;2023-11-19T03:20:08;13.90;99.90
76293;DHT22;67256;51.154;4.164;2023-11-19T03:22:41;13.90;99.90
76293;DHT22;67256;51.154;4.164;2023-11-19T03:25:13;13.90;99.90
76293;DHT22;67256;51.154;4.164;2023-11-19T03:27:39;13.80;99.90
76293;DHT22;67256;51.154;4.164;2023-11-19T03:30:10;13.80;99.90
76293;DHT22;67256;51.154;4.164;2023-11-19T03:32:36;13.80;99.90
76293;DHT22;67256;51.154;4.164;2023-11-19T03:35:04;14.00;99.90
76293;DHT22;67256;51.154;4.164;2023-11-19T03:37:32;14.00;99.90
76293;DHT22;67256;51.154;4.164;2023-11-19T03:39:58;13.90;99.90
76293;DHT22;67256;51.154;4.164;2023-11-19T03:42:29;13.80;99.90
76293;DHT22;67256;51.154;4.164;2023-11-19T03:44:57;13.80;99.90
76293;DHT22;67256;51.154;4.164;2023-11-19T03:47:23;13.60;99.90
76293;DHT22;67256;51.154;4.164;2023-11-19T03:49:50;13.70;99.90
76293;DHT22;67256;51.154;4.164;2023-11-19T03:52:17;13.70;99.90
76293;DHT22;67256;51.154;4.164;2023-11-19T03:54:43;13.70;99.90
76293;DHT22;67256;51.154;4.164;2023-11-19T03:57:09;13.80;99.90
76293;DHT22;67256;51.154;4.164;2023-11-19T03:59:38;13.90;99.90
76293;DHT22;67256;51.154;4.164;2023-11-19T04:02:04;13.90;99.90
76293;DHT22;67256;51.154;4.164;2023-11-19T04:04:29;13.80;99.90
76293;DHT22;67256;51.154;4.164;2023-11-19T04:06:56;13.80;99.90
76293;DHT22;67256;51.154;4.164;2023-11-19T04:09:23;13.80;99.90
76293;DHT22;67256;51.154;4.164;2023-11-19T04:11:49;13.60;99.90
76293;DHT22;67256;51.154;4.164;2023-11-19T04:14:15;13.50;99.90
76293;DHT22;67256;51.154;4.164;2023-11-19T04:16:44;13.50;99.90
76293;DHT22;67256;51.154;4.164;2023-11-19T04:19:10;13.40;99.90
76293;DHT22;67256;51.154;4.164;2023-11-19T04:21:36;13.40;99.90
76293;DHT22;67256;51.154;4.164;2023-11-19T04:24:02;13.40;99.90
76293;DHT22;67256;51.154;4.164;2023-11-19T04:26:28;13.40;99.90
76293;DHT22;67256;51.154;4.164;2023-11-19T04:28:53;13.50;99.90
76293;DHT22;67256;51.154;4.164;2023-11-19T04:31:19;13.30;99.90
76293;DHT22;67256;51.154;4.164;2023-11-19T04:33:46;13.30;99.90
76293;DHT22;67256;51.154;4.164;2023-11-19T04:36:12;13.20;99.90
76293;DHT22;67256;51.154;4.164;2023-11-19T04:38:39;13.20;99.90
76293;DHT22;67256;51.154;4.164;2023-11-19T04:41:06;13.20;99.90
76293;DHT22;67256;51.154;4.164;2023-11-19T04:43:32;13.30;99.90
76293;DHT22;67256;51.154;4.164;2023-11-19T04:45:58;13.30;99.90
76293;DHT22;67256;51.154;4.164;2023-11-19T04:48:24;13.20;99.90
76293;DHT22;67256;51.154;4.164;2023-11-19T04:50:50;13.20;99.90
76293;DHT22;67256;51.154;4.164;2023-11-19T04:53:19;13.20;99.90
76293;DHT22;67256;51.154;4.164;2023-11-19T04:55:45;13.20;99.90
76293;DHT22;67256;51.154;4.164;2023-11-19T04:58:11;13.20;99.90
76293;DHT22;67256;51.154;4.164;2023-11-19T05:00:37;13.10;99.90
76293;DHT22;67256;51.154;4.164;2023-11-19T05:03:03;13.10;99.60
76293;DHT22;67256;51.154;4.164;2023-11-19T05:05:28;13.10;99.90
76293;DHT22;67256;51.154;4.164;2023-11-19T05:07:55;13.20;99.80
76293;DHT22;67256;51.154;4.164;2023-11-19T05:10:21;13.10;99.70
76293;DHT22;67256;51.154;4.164;2023-11-19T05:12:47;13.20;99.40
76293;DHT22;67256;51.154;4.164;2023-11-19T05:15:13;13.10;99.30
76293;DHT22;67256;51.154;4.164;2023-11-19T05:17:39;13.10;99.40
76293;DHT22;67256;51.154;4.164;2023-11-19T05:20:06;13.10;99.20
76293;DHT22;67256;51.154;4.164;2023-11-19T05:22:41;13.00;99.10
76293;DHT22;67256;51.154;4.164;2023-11-19T05:25:08;13.00;99.20
76293;DHT22;67256;51.154;4.164;2023-11-19T05:27:35;13.10;99.30
76293;DHT22;67256;51.154;4.164;2023-11-19T05:30:02;13.10;99.00
76293;DHT22;67256;51.154;4.164;2023-11-19T05:32:28;13.20;98.90
76293;DHT22;67256;51.154;4.164;2023-11-19T05:34:54;13.10;98.80
76293;DHT22;67256;51.154;4.164;2023-11-19T05:37:20;13.20;98.90
76293;DHT22;67256;51.154;4.164;2023-11-19T05:39:46;13.20;98.60
76293;DHT22;67256;51.154;4.164;2023-11-19T05:42:11;13.20;98.80
76293;DHT22;67256;51.154;4.164;2023-11-19T05:44:37;13.20;98.60
76293;DHT22;67256;51.154;4.164;2023-11-19T05:47:03;13.20;98.70
76293;DHT22;67256;51.154;4.164;2023-11-19T05:49:29;13.30;98.60
76293;DHT22;67256;51.154;4.164;2023-11-19T05:51:55;13.40;98.50
76293;DHT22;67256;51.154;4.164;2023-11-19T05:54:22;13.40;98.20
76293;DHT22;67256;51.154;4.164;2023-11-19T05:56:48;13.40;98.20
76293;DHT22;67256;51.154;4.164;2023-11-19T05:59:19;13.40;98.10
76293;DHT22;67256;51.154;4.164;2023-11-19T06:01:45;13.40;98.30
76293;DHT22;67256;51.154;4.164;2023-11-19T06:04:12;13.40;98.10
76293;DHT22;67256;51.154;4.164;2023-11-19T06:06:38;13.30;98.40
76293;DHT22;67256;51.154;4.164;2023-11-19T06:09:06;13.30;98.40
76293;DHT22;67256;51.154;4.164;2023-11-19T06:11:33;13.30;98.30
76293;DHT22;67256;51.154;4.164;2023-11-19T06:14:00;13.30;98.40
76293;DHT22;67256;51.154;4.164;2023-11-19T06:16:25;13.30;98.20
76293;DHT22;67256;51.154;4.164;2023-11-19T06:18:52;13.20;98.40
76293;DHT22;67256;51.154;4.164;2023-11-19T06:21:19;13.20;98.30
76293;DHT22;67256;51.154;4.164;2023-11-19T06:23:44;13.20;98.10
76293;DHT22;67256;51.154;4.164;2023-11-19T06:26:10;13.20;98.00
76293;DHT22;67256;51.154;4.164;2023-11-19T06:28:37;13.20;98.20
76293;DHT22;67256;51.154;4.164;2023-11-19T06:31:03;13.10;98.00
76293;DHT22;67256;51.154;4.164;2023-11-19T06:33:30;13.20;97.90
76293;DHT22;67256;51.154;4.164;2023-11-19T06:35:55;13.00;98.20
76293;DHT22;67256;51.154;4.164;2023-11-19T06:38:21;13.00;98.10
76293;DHT22;67256;51.154;4.164;2023-11-19T06:40:47;13.00;98.30
76293;DHT22;67256;51.154;4.164;2023-11-19T06:43:13;13.00;98.50
76293;DHT22;67256;51.154;4.164;2023-11-19T06:45:39;13.00;98.40
76293;DHT22;67256;51.154;4.164;2023-11-19T06:48:05;13.00;98.30
76293;DHT22;67256;51.154;4.164;2023-11-19T06:50:32;12.90;98.40
76293;DHT22;67256;51.154;4.164;2023-11-19T06:52:58;12.90;98.40
76293;DHT22;67256;51.154;4.164;2023-11-19T06:55:24;13.00;98.30
76293;DHT22;67256;51.154;4.164;2023-11-19T06:57:50;13.00;98.30
76293;DHT22;67256;51.154;4.164;2023-11-19T07:00:16;13.00;98.20
76293;DHT22;67256;51.154;4.164;2023-11-19T07:02:42;13.00;98.20
76293;DHT22;67256;51.154;4.164;2023-11-19T07:05:10;12.90;98.40
76293;DHT22;67256;51.154;4.164;2023-11-19T07:07:37;13.00;98.20
76293;DHT22;67256;51.154;4.164;2023-11-19T07:10:03;12.90;98.30
76293;DHT22;67256;51.154;4.164;2023-11-19T07:12:31;13.00;98.30
76293;DHT22;67256;51.154;4.164;2023-11-19T07:14:56;13.00;98.40
76293;DHT22;67256;51.154;4.164;2023-11-19T07:17:22;13.00;98.20
76293;DHT22;67256;51.154;4.164;2023-11-19T07:19:50;13.00;98.30
76293;DHT22;67256;51.154;4.164;2023-11-19T07:22:17;13.10;98.30
76293;DHT22;67256;51.154;4.164;2023-11-19T07:24:43;13.10;98.10
76293;DHT22;67256;51.154;4.164;2023-11-19T07:27:09;13.00;98.10
76293;DHT22;67256;51.154;4.164;2023-11-19T07:29:38;13.00;98.30
76293;DHT22;67256;51.154;4.164;2023-11-19T07:32:04;12.90;98.40
76293;DHT22;67256;51.154;4.164;2023-11-19T07:34:30;13.00;98.50
76293;DHT22;67256;51.154;4.164;2023-11-19T07:36:56;13.10;98.50
76293;DHT22;67256;51.154;4.164;2023-11-19T07:39:30;13.00;98.50
76293;DHT22;67256;51.154;4.164;2023-11-19T07:41:56;13.10;98.40
76293;DHT22;67256;51.154;4.164;2023-11-19T07:44:22;13.10;98.50
76293;DHT22;67256;51.154;4.164;2023-11-19T07:46:48;13.00;98.80
76293;DHT22;67256;51.154;4.164;2023-11-19T07:49:14;13.00;98.70
76293;DHT22;67256;51.154;4.164;2023-11-19T07:51:40;13.00;98.70
76293;DHT22;67256;51.154;4.164;2023-11-19T07:54:06;13.00;98.90
76293;DHT22;67256;51.154;4.164;2023-11-19T07:56:33;13.00;98.70
76293;DHT22;67256;51.154;4.164;2023-11-19T07:59:02;13.10;98.40
76293;DHT22;67256;51.154;4.164;2023-11-19T08:01:28;13.10;98.50
76293;DHT22;67256;51.154;4.164;2023-11-19T08:03:54;13.20;98.40
76293;DHT22;67256;51.154;4.164;2023-11-19T08:06:21;13.10;98.50
76293;DHT22;67256;51.154;4.164;2023-11-19T08:08:47;13.00;98.60
76293;DHT22;67256;51.154;4.164;2023-11-19T08:11:13;13.20;98.60
76293;DHT22;67256;51.154;4.164;2023-11-19T08:13:40;13.30;98.20
76293;DHT22;67256;51.154;4.164;2023-11-19T08:16:06;13.30;98.10
76293;DHT22;67256;51.154;4.164;2023-11-19T08:18:32;13.40;98.10
76293;DHT22;67256;51.154;4.164;2023-11-19T08:20:58;13.30;98.10
76293;DHT22;67256;51.154;4.164;2023-11-19T08:23:24;13.30;98.20
76293;DHT22;67256;51.154;4.164;2023-11-19T08:25:51;13.40;98.10
76293;DHT22;67256;51.154;4.164;2023-11-19T08:28:18;13.20;98.20
76293;DHT22;67256;51.154;4.164;2023-11-19T08:30:43;13.20;98.40
76293;DHT22;67256;51.154;4.164;2023-11-19T08:33:10;13.20;98.40
76293;DHT22;67256;51.154;4.164;2023-11-19T08:35:37;13.20;98.50
76293;DHT22;67256;51.154;4.164;2023-11-19T08:38:02;13.30;98.40
76293;DHT22;67256;51.154;4.164;2023-11-19T08:40:28;13.40;98.30
76293;DHT22;67256;51.154;4.164;2023-11-19T08:42:58;13.40;98.30
76293;DHT22;67256;51.154;4.164;2023-11-19T08:45:25;13.30;98.20
76293;DHT22;67256;51.154;4.164;2023-11-19T08:47:50;13.20;98.50
76293;DHT22;67256;51.154;4.164;2023-11-19T08:50:16;13.30;98.40
76293;DHT22;67256;51.154;4.164;2023-11-19T08:52:42;13.20;98.50
76293;DHT22;67256;51.154;4.164;2023-11-19T08:55:08;13.30;98.40
76293;DHT22;67256;51.154;4.164;2023-11-19T08:57:35;13.30;98.50
76293;DHT22;67256;51.154;4.164;2023-11-19T09:00:01;13.40;98.20
76293;DHT22;67256;51.154;4.164;2023-11-19T09:02:33;13.40;98.10
76293;DHT22;67256;51.154;4.164;2023-11-19T09:04:59;13.30;98.30
76293;DHT22;67256;51.154;4.164;2023-11-19T09:07:25;13.40;98.30
76293;DHT22;67256;51.154;4.164;2023-11-19T09:09:51;13.40;98.00
76293;DHT22;67256;51.154;4.164;2023-11-19T09:12:17;13.40;98.10
76293;DHT22;67256;51.154;4.164;2023-11-19T09:14:43;13.40;98.30
76293;DHT22;67256;51.154;4.164;2023-11-19T09:17:09;13.50;98.00
76293;DHT22;67256;51.154;4.164;2023-11-19T09:19:35;13.50;97.90
76293;DHT22;67256;51.154;4.164;2023-11-19T09:22:01;13.50;97.90
76293;DHT22;67256;51.154;4.164;2023-11-19T09:24:28;13.50;98.00
76293;DHT22;67256;51.154;4.164;2023-11-19T09:26:54;13.50;98.20
76293;DHT22;67256;51.154;4.164;2023-11-19T09:29:21;13.50;98.10
76293;DHT22;67256;51.154;4.164;2023-11-19T09:31:47;13.40;98.30
76293;DHT22;67256;51.154;4.164;2023-11-19T09:34:13;13.30;98.60
76293;DHT22;67256;51.154;4.164;2023-11-19T09:36:39;13.30;98.70
76293;DHT22;67256;51.154;4.164;2023-11-19T09:39:10;13.40;98.50
76293;DHT22;67256;51.154;4.164;2023-11-19T09:41:36;13.40;98.70
76293;DHT22;67256;51.154;4.164;2023-11-19T09:44:02;13.40;98.60
76293;DHT22;67256;51.154;4.164;2023-11-19T09:46:28;13.50;98.40
76293;DHT22;67256;51.154;4.164;2023-11-19T09:48:56;13.50;98.30
76293;DHT22;67256;51.154;4.164;2023-11-19T09:51:23;13.50;98.30
76293;DHT22;67256;51.154;4.164;2023-11-19T09:53:50;13.60;98.20
76293;DHT22;67256;51.154;4.164;2023-11-19T09:56:16;13.70;98.20
76293;DHT22;67256;51.154;4.164;2023-11-19T09:58:43;13.60;98.00
76293;DHT22;67256;51.154;4.164;2023-11-19T10:01:08;13.60;97.90
76293;DHT22;67256;51.154;4.164;2023-11-19T10:03:37;13.60;97.80
76293;DHT22;67256;51.154;4.164;2023-11-19T10:06:09;13.70;97.70
76293;DHT22;67256;51.154;4.164;2023-11-19T10:08:40;13.60;97.70
76293;DHT22;67256;51.154;4.164;2023-11-19T10:11:07;13.70;97.80
76293;DHT22;67256;51.154;4.164;2023-11-19T10:13:36;13.80;97.70
76293;DHT22;67256;51.154;4.164;2023-11-19T10:16:09;13.80;97.70
76293;DHT22;67256;51.154;4.164;2023-11-19T10:18:37;14.00;97.60
76293;DHT22;67256;51.154;4.164;2023-11-19T10:21:04;13.90;97.90
76293;DHT22;67256;51.154;4.164;2023-11-19T10:23:31;13.80;98.50
76293;DHT22;67256;51.154;4.164;2023-11-19T10:26:04;13.70;98.80
76293;DHT22;67256;51.154;4.164;2023-11-19T10:28:41;13.80;98.80
76293;DHT22;67256;51.154;4.164;2023-11-19T10:31:15;13.80;98.90
76293;DHT22;67256;51.154;4.164;2023-11-19T10:33:42;13.90;98.70
76293;DHT22;67256;51.154;4.164;2023-11-19T10:36:09;13.90;98.60
76293;DHT22;67256;51.154;4.164;2023-11-19T10:38:35;14.10;98.60
76293;DHT22;67256;51.154;4.164;2023-11-19T10:41:01;14.10;98.30
76293;DHT22;67256;51.154;4.164;2023-11-19T10:43:27;14.20;97.80
76293;DHT22;67256;51.154;4.164;2023-11-19T10:45:53;14.20;97.90
76293;DHT22;67256;51.154;4.164;2023-11-19T10:48:19;14.20;97.60
76293;DHT22;67256;51.154;4.164;2023-11-19T10:50:52;14.20;97.80
76293;DHT22;67256;51.154;4.164;2023-11-19T10:53:20;14.40;97.80
76293;DHT22;67256;51.154;4.164;2023-11-19T10:55:48;14.40;97.30
76293;DHT22;67256;51.154;4.164;2023-11-19T10:58:16;14.30;97.30
76293;DHT22;67256;51.154;4.164;2023-11-19T11:03:19;14.20;97.60
76293;DHT22;67256;51.154;4.164;2023-11-19T11:05:49;14.20;97.70
76293;DHT22;67256;51.154;4.164;2023-11-19T11:08:16;14.30;97.30
76293;DHT22;67256;51.154;4.164;2023-11-19T11:10:54;14.30;97.30
76293;DHT22;67256;51.154;4.164;2023-11-19T11:13:22;14.30;97.40
76293;DHT22;67256;51.154;4.164;2023-11-19T11:15:52;14.30;97.30
76293;DHT22;67256;51.154;4.164;2023-11-19T11:18:20;14.30;97.40
76293;DHT22;67256;51.154;4.164;2023-11-19T11:20:46;14.40;97.20
76293;DHT22;67256;51.154;4.164;2023-11-19T11:23:29;14.50;96.90
76293;DHT22;67256;51.154;4.164;2023-11-19T11:29:03;14.30;97.30
76293;DHT22;67256;51.154;4.164;2023-11-19T11:39:29;14.20;97.20
76293;DHT22;67256;51.154;4.164;2023-11-19T11:45:10;14.20;97.30
76293;DHT22;67256;51.154;4.164;2023-11-19T11:50:09;14.30;97.00
76293;DHT22;67256;51.154;4.164;2023-11-19T11:58:08;14.10;97.90
76293;DHT22;67256;51.154;4.164;2023-11-19T12:00:39;14.00;98.30
76293;DHT22;67256;51.154;4.164;2023-11-19T12:03:06;14.00;98.50
76293;DHT22;67256;51.154;4.164;2023-11-19T12:05:43;14.00;98.90
76293;DHT22;67256;51.154;4.164;2023-11-19T12:08:11;14.10;98.80
76293;DHT22;67256;51.154;4.164;2023-11-19T12:10:50;14.00;99.20
76293;DHT22;67256;51.154;4.164;2023-11-19T12:13:18;14.00;99.60
76293;DHT22;67256;51.154;4.164;2023-11-19T12:18:30;13.80;99.80
76293;DHT22;67256;51.154;4.164;2023-11-19T12:20:59;13.70;99.90
76293;DHT22;67256;51.154;4.164;2023-11-19T12:23:31;13.60;99.90
76293;DHT22;67256;51.154;4.164;2023-11-19T12:25:58;13.70;99.70
76293;DHT22;67256;51.154;4.164;2023-11-19T12:28:24;13.70;99.40
76293;DHT22;67256;51.154;4.164;2023-11-19T12:30:52;13.60;99.50
76293;DHT22;67256;51.154;4.164;2023-11-19T12:33:19;13.60;99.90
76293;DHT22;67256;51.154;4.164;2023-11-19T12:35:48;13.70;99.90
76293;DHT22;67256;51.154;4.164;2023-11-19T12:38:21;13.70;99.90
76293;DHT22;67256;51.154;4.164;2023-11-19T12:40:47;13.90;99.90
76293;DHT22;67256;51.154;4.164;2023-11-19T12:43:22;14.00;99.70
76293;DHT22;67256;51.154;4.164;2023-11-19T12:45:48;14.20;99.60
76293;DHT22;67256;51.154;4.164;2023-11-19T12:48:14;14.40;99.20
76293;DHT22;67256;51.154;4.164;2023-11-19T12:50:57;14.50;99.00
76293;DHT22;67256;51.154;4.164;2023-11-19T12:53:25;14.60;98.40
76293;DHT22;67256;51.154;4.164;2023-11-19T12:55:51;14.50;98.70
76293;DHT22;67256;51.154;4.164;2023-11-19T12:58:34;14.40;98.50
76293;DHT22;67256;51.154;4.164;2023-11-19T13:01:05;14.40;98.50
76293;DHT22;67256;51.154;4.164;2023-11-19T13:03:35;14.30;98.90
76293;DHT22;67256;51.154;4.164;2023-11-19T13:06:06;14.30;98.60
76293;DHT22;67256;51.154;4.164;2023-11-19T13:08:38;14.20;98.10
76293;DHT22;67256;51.154;4.164;2023-11-19T13:11:05;14.30;98.70
76293;DHT22;67256;51.154;4.164;2023-11-19T13:13:32;14.20;99.00
76293;DHT22;67256;51.154;4.164;2023-11-19T13:16:05;14.10;99.10
76293;DHT22;67256;51.154;4.164;2023-11-19T13:18:34;14.20;99.20
76293;DHT22;67256;51.154;4.164;2023-11-19T13:21:00;14.20;99.10
76293;DHT22;67256;51.154;4.164;2023-11-19T13:23:26;14.20;99.10
76293;DHT22;67256;51.154;4.164;2023-11-19T13:25:52;14.20;98.90
76293;DHT22;67256;51.154;4.164;2023-11-19T13:28:18;14.20;98.90
76293;DHT22;67256;51.154;4.164;2023-11-19T13:30:44;14.10;98.70
76293;DHT22;67256;51.154;4.164;2023-11-19T13:33:10;14.10;99.00
76293;DHT22;67256;51.154;4.164;2023-11-19T13:35:38;14.10;98.90
76293;DHT22;67256;51.154;4.164;2023-11-19T13:38:06;14.00;98.70
76293;DHT22;67256;51.154;4.164;2023-11-19T13:40:34;14.00;98.70
76293;DHT22;67256;51.154;4.164;2023-11-19T13:43:00;13.90;98.90
76293;DHT22;67256;51.154;4.164;2023-11-19T13:45:26;13.90;99.00
76293;DHT22;67256;51.154;4.164;2023-11-19T13:47:52;14.10;98.70
76293;DHT22;67256;51.154;4.164;2023-11-19T13:50:17;14.10;98.60
76293;DHT22;67256;51.154;4.164;2023-11-19T13:52:44;14.10;98.40
76293;DHT22;67256;51.154;4.164;2023-11-19T13:55:12;14.10;98.30
76293;DHT22;67256;51.154;4.164;2023-11-19T13:57:38;14.00;98.50
76293;DHT22;67256;51.154;4.164;2023-11-19T14:00:06;14.10;98.60
76293;DHT22;67256;51.154;4.164;2023-11-19T14:02:35;14.20;98.40
76293;DHT22;67256;51.154;4.164;2023-11-19T14:05:01;14.30;98.30
76293;DHT22;67256;51.154;4.164;2023-11-19T14:07:27;14.30;98.20
76293;DHT22;67256;51.154;4.164;2023-11-19T14:09:54;14.20;98.30
76293;DHT22;67256;51.154;4.164;2023-11-19T14:12:20;14.20;98.10
76293;DHT22;67256;51.154;4.164;2023-11-19T14:14:45;14.10;98.40
76293;DHT22;67256;51.154;4.164;2023-11-19T14:17:11;14.10;99.00
76293;DHT22;67256;51.154;4.164;2023-11-19T14:19:38;14.00;99.10
76293;DHT22;67256;51.154;4.164;2023-11-19T14:22:05;14.00;99.40
76293;DHT22;67256;51.154;4.164;2023-11-19T14:24:31;14.00;99.10
76293;DHT22;67256;51.154;4.164;2023-11-19T14:26:57;14.00;99.40
76293;DHT22;67256;51.154;4.164;2023-11-19T14:29:27;14.00;99.30
76293;DHT22;67256;51.154;4.164;2023-11-19T14:31:54;14.00;99.10
76293;DHT22;67256;51.154;4.164;2023-11-19T14:34:21;13.90;99.20
76293;DHT22;67256;51.154;4.164;2023-11-19T14:36:46;14.00;99.00
76293;DHT22;67256;51.154;4.164;2023-11-19T14:39:13;14.00;99.00
76293;DHT22;67256;51.154;4.164;2023-11-19T14:41:39;13.90;98.90
76293;DHT22;67256;51.154;4.164;2023-11-19T14:44:05;13.80;99.10
76293;DHT22;67256;51.154;4.164;2023-11-19T14:46:31;13.80;99.10
76293;DHT22;67256;51.154;4.164;2023-11-19T14:48:57;13.80;99.10
76293;DHT22;67256;51.154;4.164;2023-11-19T14:51:23;13.80;98.90
76293;DHT22;67256;51.154;4.164;2023-11-19T14:53:48;13.80;98.60
76293;DHT22;67256;51.154;4.164;2023-11-19T14:56:14;13.70;98.90
76293;DHT22;67256;51.154;4.164;2023-11-19T14:58:40;13.70;99.30
76293;DHT22;67256;51.154;4.164;2023-11-19T15:01:06;13.90;99.00
76293;DHT22;67256;51.154;4.164;2023-11-19T15:03:33;14.10;98.60
76293;DHT22;67256;51.154;4.164;2023-11-19T15:05:59;13.90;98.50
76293;DHT22;67256;51.154;4.164;2023-11-19T15:08:25;14.00;98.60
76293;DHT22;67256;51.154;4.164;2023-11-19T15:10:51;14.00;98.60
76293;DHT22;67256;51.154;4.164;2023-11-19T15:13:18;14.10;98.40
76293;DHT22;67256;51.154;4.164;2023-11-19T15:15:44;14.10;98.10
76293;DHT22;67256;51.154;4.164;2023-11-19T15:18:10;14.10;98.00
76293;DHT22;67256;51.154;4.164;2023-11-19T15:20:36;14.10;98.10
76293;DHT22;67256;51.154;4.164;2023-11-19T15:23:02;14.10;97.80
76293;DHT22;67256;51.154;4.164;2023-11-19T15:25:29;14.10;97.90
76293;DHT22;67256;51.154;4.164;2023-11-19T15:27:55;14.00;97.70
76293;DHT22;67256;51.154;4.164;2023-11-19T15:30:20;13.90;97.50
76293;DHT22;67256;51.154;4.164;2023-11-19T15:32:46;13.90;97.90
76293;DHT22;67256;51.154;4.164;2023-11-19T15:35:12;14.00;97.90
76293;DHT22;67256;51.154;4.164;2023-11-19T15:37:38;13.90;97.50
76293;DHT22;67256;51.154;4.164;2023-11-19T15:40:07;13.80;97.50
76293;DHT22;67256;51.154;4.164;2023-11-19T15:42:34;13.70;97.40
76293;DHT22;67256;51.154;4.164;2023-11-19T15:45:00;13.60;97.60
76293;DHT22;67256;51.154;4.164;2023-11-19T15:47:29;13.60;97.70
76293;DHT22;67256;51.154;4.164;2023-11-19T15:49:56;13.60;97.80
76293;DHT22;67256;51.154;4.164;2023-11-19T15:52:22;13.60;98.00
76293;DHT22;67256;51.154;4.164;2023-11-19T15:54:48;13.60;98.10
76293;DHT22;67256;51.154;4.164;2023-11-19T15:57:14;13.50;98.60
76293;DHT22;67256;51.154;4.164;2023-11-19T15:59:40;13.50;99.00